sensor_id;sensor_type;location;lat;lon;timestamp;P1;durP1;ratioP1;P2;durP2;ratioP2
2416;SDS011;1219;48.736;9.330;2023-03-01T00:01:02;18.73;;;12.57;;
2416;SDS011;1219;48.736;9.330;2023-03-01T00:03:28;21.67;;;12.70;;
2416;SDS011;1219;48.736;9.330;2023-03-01T00:05:54;16.10;;;13.17;;
2416;SDS011;1219;48.736;9.330;2023-03-01T00:08:20;20.30;;;13.70;;
2416;SDS011;1219;48.736;9.330;2023-03-01T00:10:46;18.40;;;13.47;;
2416;SDS011;1219;48.736;9.330;2023-03-01T00:13:12;21.70;;;13.53;;
2416;SDS011;1219;48.736;9.330;2023-03-01T00:15:39;17.90;;;14.20;;
2416;SDS011;1219;48.736;9.330;2023-03-01T00:18:06;19.77;;;12.37;;
2416;SDS011;1219;48.736;9.330;2023-03-01T00:20:32;16.10;;;12.60;;
2416;SDS011;1219;48.736;9.330;2023-03-01T00:22:58;17.50;;;12.37;;
2416;SDS011;1219;48.736;9.330;2023-03-01T00:25:24;19.33;;;13.23;;
2416;SDS011;1219;48.736;9.330;2023-03-01T00:27:50;19.63;;;13.40;;
2416;SDS011;1219;48.736;9.330;2023-03-01T00:30:16;13.80;;;11.87;;
2416;SDS011;1219;48.736;9.330;2023-03-01T00:32:42;16.10;;;11.87;;
2416;SDS011;1219;48.736;9.330;2023-03-01T00:35:08;15.33;;;11.47;;
2416;SDS011;1219;48.736;9.330;2023-03-01T00:37:34;17.23;;;13.00;;
2416;SDS011;1219;48.736;9.330;2023-03-01T00:39:59;16.67;;;12.23;;
2416;SDS011;1219;48.736;9.330;2023-03-01T00:42:25;17.27;;;12.40;;
2416;SDS011;1219;48.736;9.330;2023-03-01T00:44:51;14.30;;;12.43;;
2416;SDS011;1219;48.736;9.330;2023-03-01T00:47:17;17.67;;;12.57;;
2416;SDS011;1219;48.736;9.330;2023-03-01T00:49:43;14.67;;;11.70;;
2416;SDS011;1219;48.736;9.330;2023-03-01T00:52:09;22.07;;;13.20;;
2416;SDS011;1219;48.736;9.330;2023-03-01T00:54:35;17.40;;;13.00;;
2416;SDS011;1219;48.736;9.330;2023-03-01T00:57:01;15.50;;;11.63;;
2416;SDS011;1219;48.736;9.330;2023-03-01T00:59:27;18.37;;;13.33;;
2416;SDS011;1219;48.736;9.330;2023-03-01T01:01:53;14.20;;;12.20;;
2416;SDS011;1219;48.736;9.330;2023-03-01T01:04:19;15.87;;;13.10;;
2416;SDS011;1219;48.736;9.330;2023-03-01T01:06:45;18.30;;;13.37;;
2416;SDS011;1219;48.736;9.330;2023-03-01T01:09:12;17.50;;;12.90;;
2416;SDS011;1219;48.736;9.330;2023-03-01T01:11:42;17.47;;;12.57;;
2416;SDS011;1219;48.736;9.330;2023-03-01T01:14:08;18.20;;;12.93;;
2416;SDS011;1219;48.736;9.330;2023-03-01T01:16:34;20.10;;;14.03;;
2416;SDS011;1219;48.736;9.330;2023-03-01T01:19:00;18.50;;;12.73;;
2416;SDS011;1219;48.736;9.330;2023-03-01T01:21:26;19.27;;;13.50;;
2416;SDS011;1219;48.736;9.330;2023-03-01T01:23:52;15.93;;;12.40;;
2416;SDS011;1219;48.736;9.330;2023-03-01T01:26:20;16.50;;;11.80;;
2416;SDS011;1219;48.736;9.330;2023-03-01T01:28:46;20.83;;;12.63;;
2416;SDS011;1219;48.736;9.330;2023-03-01T01:31:12;18.40;;;11.80;;
2416;SDS011;1219;48.736;9.330;2023-03-01T01:33:39;19.23;;;13.90;;
2416;SDS011;1219;48.736;9.330;2023-03-01T01:36:05;18.80;;;12.37;;
2416;SDS011;1219;48.736;9.330;2023-03-01T01:38:32;18.03;;;13.30;;
2416;SDS011;1219;48.736;9.330;2023-03-01T01:40:58;20.77;;;14.00;;
2416;SDS011;1219;48.736;9.330;2023-03-01T01:43:25;21.97;;;15.63;;
2416;SDS011;1219;48.736;9.330;2023-03-01T01:45:52;21.13;;;13.30;;
2416;SDS011;1219;48.736;9.330;2023-03-01T01:48:20;20.03;;;13.93;;
2416;SDS011;1219;48.736;9.330;2023-03-01T01:50:50;17.90;;;14.37;;
2416;SDS011;1219;48.736;9.330;2023-03-01T01:53:17;18.20;;;12.83;;
2416;SDS011;1219;48.736;9.330;2023-03-01T01:55:45;17.30;;;12.60;;
2416;SDS011;1219;48.736;9.330;2023-03-01T01:58:12;21.30;;;12.90;;
2416;SDS011;1219;48.736;9.330;2023-03-01T02:00:39;19.00;;;13.30;;
2416;SDS011;1219;48.736;9.330;2023-03-01T02:03:13;16.50;;;12.10;;
2416;SDS011;1219;48.736;9.330;2023-03-01T02:08:08;19.20;;;14.10;;
2416;SDS011;1219;48.736;9.330;2023-03-01T02:10:35;18.40;;;13.10;;
2416;SDS011;1219;48.736;9.330;2023-03-01T02:13:03;15.63;;;12.00;;
2416;SDS011;1219;48.736;9.330;2023-03-01T02:15:32;22.80;;;13.93;;
2416;SDS011;1219;48.736;9.330;2023-03-01T02:17:58;17.97;;;13.20;;
2416;SDS011;1219;48.736;9.330;2023-03-01T02:23:03;19.37;;;13.47;;
2416;SDS011;1219;48.736;9.330;2023-03-01T02:25:32;17.87;;;13.20;;
2416;SDS011;1219;48.736;9.330;2023-03-01T02:30:28;17.00;;;12.90;;
2416;SDS011;1219;48.736;9.330;2023-03-01T02:32:55;21.93;;;12.70;;
2416;SDS011;1219;48.736;9.330;2023-03-01T02:35:33;17.60;;;13.03;;
2416;SDS011;1219;48.736;9.330;2023-03-01T02:38:00;20.23;;;12.97;;
2416;SDS011;1219;48.736;9.330;2023-03-01T02:40:28;19.30;;;14.50;;
2416;SDS011;1219;48.736;9.330;2023-03-01T02:42:55;15.97;;;13.47;;
2416;SDS011;1219;48.736;9.330;2023-03-01T02:45:22;18.27;;;12.60;;
2416;SDS011;1219;48.736;9.330;2023-03-01T02:47:48;22.67;;;14.00;;
2416;SDS011;1219;48.736;9.330;2023-03-01T02:52:46;20.07;;;13.47;;
2416;SDS011;1219;48.736;9.330;2023-03-01T02:55:14;20.50;;;15.23;;
2416;SDS011;1219;48.736;9.330;2023-03-01T02:57:42;17.80;;;13.70;;
2416;SDS011;1219;48.736;9.330;2023-03-01T03:00:53;21.13;;;13.67;;
2416;SDS011;1219;48.736;9.330;2023-03-01T03:02:54;17.80;;;13.27;;
2416;SDS011;1219;48.736;9.330;2023-03-01T03:05:29;18.73;;;14.00;;
2416;SDS011;1219;48.736;9.330;2023-03-01T03:07:57;23.70;;;14.40;;
2416;SDS011;1219;48.736;9.330;2023-03-01T03:10:24;21.03;;;14.00;;
2416;SDS011;1219;48.736;9.330;2023-03-01T03:12:51;16.90;;;14.47;;
2416;SDS011;1219;48.736;9.330;2023-03-01T03:15:17;21.30;;;14.40;;
2416;SDS011;1219;48.736;9.330;2023-03-01T03:17:45;25.07;;;15.30;;
2416;SDS011;1219;48.736;9.330;2023-03-01T03:20:11;17.10;;;12.77;;
2416;SDS011;1219;48.736;9.330;2023-03-01T03:22:43;20.90;;;14.47;;
2416;SDS011;1219;48.736;9.330;2023-03-01T03:25:09;18.57;;;14.37;;
2416;SDS011;1219;48.736;9.330;2023-03-01T03:27:39;24.40;;;14.80;;
2416;SDS011;1219;48.736;9.330;2023-03-01T03:30:05;17.30;;;13.63;;
2416;SDS011;1219;48.736;9.330;2023-03-01T03:32:34;18.97;;;14.60;;
2416;SDS011;1219;48.736;9.330;2023-03-01T03:35:00;19.90;;;13.93;;
2416;SDS011;1219;48.736;9.330;2023-03-01T03:37:26;20.60;;;14.30;;
2416;SDS011;1219;48.736;9.330;2023-03-01T03:40:10;17.40;;;13.10;;
2416;SDS011;1219;48.736;9.330;2023-03-01T03:42:40;21.17;;;15.13;;
2416;SDS011;1219;48.736;9.330;2023-03-01T03:45:06;20.50;;;14.63;;
2416;SDS011;1219;48.736;9.330;2023-03-01T03:47:32;21.17;;;14.87;;
2416;SDS011;1219;48.736;9.330;2023-03-01T03:49:58;21.47;;;14.53;;
2416;SDS011;1219;48.736;9.330;2023-03-01T03:52:24;21.47;;;14.20;;
2416;SDS011;1219;48.736;9.330;2023-03-01T03:54:50;23.60;;;14.97;;
2416;SDS011;1219;48.736;9.330;2023-03-01T03:57:16;19.47;;;14.47;;
2416;SDS011;1219;48.736;9.330;2023-03-01T03:59:42;19.73;;;14.47;;
2416;SDS011;1219;48.736;9.330;2023-03-01T04:02:08;22.30;;;15.67;;
2416;SDS011;1219;48.736;9.330;2023-03-01T04:04:34;19.70;;;14.13;;
2416;SDS011;1219;48.736;9.330;2023-03-01T04:07:00;23.10;;;16.20;;
2416;SDS011;1219;48.736;9.330;2023-03-01T04:09:25;19.47;;;15.13;;
2416;SDS011;1219;48.736;9.330;2023-03-01T04:11:51;22.50;;;13.30;;
2416;SDS011;1219;48.736;9.330;2023-03-01T04:14:17;23.40;;;15.60;;
2416;SDS011;1219;48.736;9.330;2023-03-01T04:16:43;20.10;;;15.17;;
2416;SDS011;1219;48.736;9.330;2023-03-01T04:19:09;23.27;;;15.00;;
2416;SDS011;1219;48.736;9.330;2023-03-01T04:21:35;23.27;;;15.80;;
2416;SDS011;1219;48.736;9.330;2023-03-01T04:24:01;16.23;;;13.03;;
2416;SDS011;1219;48.736;9.330;2023-03-01T04:26:28;19.80;;;13.23;;
2416;SDS011;1219;48.736;9.330;2023-03-01T04:28:54;21.97;;;15.30;;
2416;SDS011;1219;48.736;9.330;2023-03-01T04:31:20;20.00;;;14.93;;
2416;SDS011;1219;48.736;9.330;2023-03-01T04:33:47;20.33;;;14.70;;
2416;SDS011;1219;48.736;9.330;2023-03-01T04:36:14;22.73;;;15.57;;
2416;SDS011;1219;48.736;9.330;2023-03-01T04:38:41;19.83;;;14.90;;
2416;SDS011;1219;48.736;9.330;2023-03-01T04:41:08;21.03;;;16.33;;
2416;SDS011;1219;48.736;9.330;2023-03-01T04:43:34;19.10;;;14.77;;
2416;SDS011;1219;48.736;9.330;2023-03-01T04:46:01;20.70;;;14.83;;
2416;SDS011;1219;48.736;9.330;2023-03-01T04:48:27;22.23;;;16.27;;
2416;SDS011;1219;48.736;9.330;2023-03-01T04:50:53;19.40;;;15.10;;
2416;SDS011;1219;48.736;9.330;2023-03-01T04:53:19;22.67;;;14.93;;
2416;SDS011;1219;48.736;9.330;2023-03-01T04:55:45;22.10;;;15.80;;
2416;SDS011;1219;48.736;9.330;2023-03-01T04:58:11;22.67;;;15.33;;
2416;SDS011;1219;48.736;9.330;2023-03-01T05:00:37;21.60;;;15.27;;
2416;SDS011;1219;48.736;9.330;2023-03-01T05:03:03;24.60;;;15.60;;
2416;SDS011;1219;48.736;9.330;2023-03-01T05:05:30;24.10;;;15.80;;
2416;SDS011;1219;48.736;9.330;2023-03-01T05:07:58;18.93;;;15.10;;
2416;SDS011;1219;48.736;9.330;2023-03-01T05:10:25;21.10;;;15.97;;
2416;SDS011;1219;48.736;9.330;2023-03-01T05:12:51;21.00;;;14.93;;
2416;SDS011;1219;48.736;9.330;2023-03-01T05:15:18;23.70;;;15.63;;
2416;SDS011;1219;48.736;9.330;2023-03-01T05:17:46;19.80;;;16.10;;
2416;SDS011;1219;48.736;9.330;2023-03-01T05:20:12;20.93;;;15.00;;
2416;SDS011;1219;48.736;9.330;2023-03-01T05:22:38;23.40;;;16.10;;
2416;SDS011;1219;48.736;9.330;2023-03-01T05:25:04;22.63;;;15.63;;
2416;SDS011;1219;48.736;9.330;2023-03-01T05:27:32;18.33;;;15.33;;
2416;SDS011;1219;48.736;9.330;2023-03-01T05:29:58;26.40;;;15.90;;
2416;SDS011;1219;48.736;9.330;2023-03-01T05:32:24;24.60;;;15.60;;
2416;SDS011;1219;48.736;9.330;2023-03-01T05:34:50;24.40;;;15.50;;
2416;SDS011;1219;48.736;9.330;2023-03-01T05:37:17;25.27;;;17.10;;
2416;SDS011;1219;48.736;9.330;2023-03-01T05:39:44;29.03;;;17.13;;
2416;SDS011;1219;48.736;9.330;2023-03-01T05:42:10;22.60;;;15.80;;
2416;SDS011;1219;48.736;9.330;2023-03-01T05:44:37;22.40;;;16.00;;
2416;SDS011;1219;48.736;9.330;2023-03-01T05:47:03;23.77;;;15.33;;
2416;SDS011;1219;48.736;9.330;2023-03-01T05:49:29;21.27;;;16.10;;
2416;SDS011;1219;48.736;9.330;2023-03-01T05:51:55;21.47;;;15.60;;
2416;SDS011;1219;48.736;9.330;2023-03-01T05:54:21;21.97;;;18.17;;
2416;SDS011;1219;48.736;9.330;2023-03-01T05:56:47;20.17;;;15.37;;
2416;SDS011;1219;48.736;9.330;2023-03-01T05:59:13;26.00;;;15.83;;
2416;SDS011;1219;48.736;9.330;2023-03-01T06:01:41;27.17;;;16.20;;
2416;SDS011;1219;48.736;9.330;2023-03-01T06:04:07;24.30;;;17.07;;
2416;SDS011;1219;48.736;9.330;2023-03-01T06:06:33;23.40;;;16.17;;
2416;SDS011;1219;48.736;9.330;2023-03-01T06:08:59;23.87;;;16.30;;
2416;SDS011;1219;48.736;9.330;2023-03-01T06:11:25;23.23;;;16.67;;
2416;SDS011;1219;48.736;9.330;2023-03-01T06:13:51;30.00;;;16.20;;
2416;SDS011;1219;48.736;9.330;2023-03-01T06:16:17;30.00;;;17.03;;
2416;SDS011;1219;48.736;9.330;2023-03-01T06:18:43;23.23;;;15.77;;
2416;SDS011;1219;48.736;9.330;2023-03-01T06:21:09;21.60;;;16.17;;
2416;SDS011;1219;48.736;9.330;2023-03-01T06:23:35;27.27;;;18.10;;
2416;SDS011;1219;48.736;9.330;2023-03-01T06:26:05;24.10;;;17.30;;
2416;SDS011;1219;48.736;9.330;2023-03-01T06:28:31;28.77;;;18.27;;
2416;SDS011;1219;48.736;9.330;2023-03-01T06:30:57;26.00;;;17.27;;
2416;SDS011;1219;48.736;9.330;2023-03-01T06:33:23;21.43;;;14.10;;
2416;SDS011;1219;48.736;9.330;2023-03-01T06:35:49;22.37;;;16.60;;
2416;SDS011;1219;48.736;9.330;2023-03-01T06:38:15;21.13;;;15.43;;
2416;SDS011;1219;48.736;9.330;2023-03-01T06:40:43;22.03;;;16.50;;
2416;SDS011;1219;48.736;9.330;2023-03-01T06:43:09;20.17;;;16.10;;
2416;SDS011;1219;48.736;9.330;2023-03-01T06:45:36;24.23;;;15.67;;
2416;SDS011;1219;48.736;9.330;2023-03-01T06:48:04;21.50;;;17.00;;
2416;SDS011;1219;48.736;9.330;2023-03-01T06:50:30;23.63;;;16.53;;
2416;SDS011;1219;48.736;9.330;2023-03-01T06:52:57;24.80;;;16.40;;
2416;SDS011;1219;48.736;9.330;2023-03-01T06:55:23;25.70;;;16.73;;
2416;SDS011;1219;48.736;9.330;2023-03-01T06:57:53;22.87;;;16.67;;
2416;SDS011;1219;48.736;9.330;2023-03-01T07:00:20;23.70;;;16.40;;
2416;SDS011;1219;48.736;9.330;2023-03-01T07:02:46;21.87;;;16.40;;
2416;SDS011;1219;48.736;9.330;2023-03-01T07:05:11;23.13;;;16.00;;
2416;SDS011;1219;48.736;9.330;2023-03-01T07:07:37;25.53;;;16.97;;
2416;SDS011;1219;48.736;9.330;2023-03-01T07:10:04;23.60;;;16.03;;
2416;SDS011;1219;48.736;9.330;2023-03-01T07:12:30;18.80;;;14.90;;
2416;SDS011;1219;48.736;9.330;2023-03-01T07:14:56;27.37;;;18.03;;
2416;SDS011;1219;48.736;9.330;2023-03-01T07:17:21;26.07;;;16.43;;
2416;SDS011;1219;48.736;9.330;2023-03-01T07:19:47;22.30;;;17.27;;
2416;SDS011;1219;48.736;9.330;2023-03-01T07:22:13;25.03;;;16.40;;
2416;SDS011;1219;48.736;9.330;2023-03-01T07:24:40;27.00;;;16.70;;
2416;SDS011;1219;48.736;9.330;2023-03-01T07:27:06;30.63;;;16.90;;
2416;SDS011;1219;48.736;9.330;2023-03-01T07:29:32;21.77;;;15.20;;
2416;SDS011;1219;48.736;9.330;2023-03-01T07:31:58;19.33;;;14.37;;
2416;SDS011;1219;48.736;9.330;2023-03-01T07:34:24;24.57;;;15.50;;
2416;SDS011;1219;48.736;9.330;2023-03-01T07:36:50;23.50;;;15.70;;
2416;SDS011;1219;48.736;9.330;2023-03-01T07:39:17;26.27;;;16.93;;
2416;SDS011;1219;48.736;9.330;2023-03-01T07:41:43;27.67;;;16.27;;
2416;SDS011;1219;48.736;9.330;2023-03-01T07:44:09;20.87;;;16.70;;
2416;SDS011;1219;48.736;9.330;2023-03-01T07:46:35;22.97;;;16.30;;
2416;SDS011;1219;48.736;9.330;2023-03-01T07:49:01;21.23;;;15.87;;
2416;SDS011;1219;48.736;9.330;2023-03-01T07:51:27;21.50;;;16.00;;
2416;SDS011;1219;48.736;9.330;2023-03-01T07:53:53;31.37;;;17.90;;
2416;SDS011;1219;48.736;9.330;2023-03-01T07:56:19;21.27;;;16.30;;
2416;SDS011;1219;48.736;9.330;2023-03-01T07:58:46;23.20;;;16.60;;
2416;SDS011;1219;48.736;9.330;2023-03-01T08:01:14;22.57;;;15.83;;
2416;SDS011;1219;48.736;9.330;2023-03-01T08:03:40;22.50;;;16.80;;
2416;SDS011;1219;48.736;9.330;2023-03-01T08:06:08;23.77;;;17.67;;
2416;SDS011;1219;48.736;9.330;2023-03-01T08:08:34;23.53;;;15.80;;
2416;SDS011;1219;48.736;9.330;2023-03-01T08:11:01;23.90;;;16.10;;
2416;SDS011;1219;48.736;9.330;2023-03-01T08:13:28;24.60;;;15.87;;
2416;SDS011;1219;48.736;9.330;2023-03-01T08:15:54;39.97;;;24.37;;
2416;SDS011;1219;48.736;9.330;2023-03-01T08:18:20;20.80;;;15.13;;
2416;SDS011;1219;48.736;9.330;2023-03-01T08:20:46;27.33;;;16.93;;
2416;SDS011;1219;48.736;9.330;2023-03-01T08:23:12;22.13;;;15.90;;
2416;SDS011;1219;48.736;9.330;2023-03-01T08:25:38;27.00;;;18.03;;
2416;SDS011;1219;48.736;9.330;2023-03-01T08:28:05;22.03;;;16.27;;
2416;SDS011;1219;48.736;9.330;2023-03-01T08:30:31;28.73;;;18.07;;
2416;SDS011;1219;48.736;9.330;2023-03-01T08:32:57;23.07;;;17.03;;
2416;SDS011;1219;48.736;9.330;2023-03-01T08:35:23;25.97;;;15.23;;
2416;SDS011;1219;48.736;9.330;2023-03-01T08:37:49;26.60;;;18.20;;
2416;SDS011;1219;48.736;9.330;2023-03-01T08:40:15;24.50;;;17.23;;
2416;SDS011;1219;48.736;9.330;2023-03-01T08:42:41;22.13;;;15.50;;
2416;SDS011;1219;48.736;9.330;2023-03-01T08:45:10;24.93;;;16.90;;
2416;SDS011;1219;48.736;9.330;2023-03-01T08:47:37;22.37;;;15.40;;
2416;SDS011;1219;48.736;9.330;2023-03-01T08:50:04;20.47;;;15.50;;
2416;SDS011;1219;48.736;9.330;2023-03-01T08:52:31;22.97;;;16.80;;
2416;SDS011;1219;48.736;9.330;2023-03-01T08:54:57;23.50;;;16.63;;
2416;SDS011;1219;48.736;9.330;2023-03-01T08:57:23;21.37;;;15.87;;
2416;SDS011;1219;48.736;9.330;2023-03-01T08:59:49;24.10;;;17.40;;
2416;SDS011;1219;48.736;9.330;2023-03-01T09:02:16;22.77;;;16.37;;
2416;SDS011;1219;48.736;9.330;2023-03-01T09:04:42;27.57;;;17.07;;
2416;SDS011;1219;48.736;9.330;2023-03-01T09:07:09;23.90;;;17.40;;
2416;SDS011;1219;48.736;9.330;2023-03-01T09:09:35;22.60;;;15.93;;
2416;SDS011;1219;48.736;9.330;2023-03-01T09:12:01;20.50;;;16.43;;
2416;SDS011;1219;48.736;9.330;2023-03-01T09:14:27;23.53;;;16.60;;
2416;SDS011;1219;48.736;9.330;2023-03-01T09:16:53;25.00;;;17.93;;
2416;SDS011;1219;48.736;9.330;2023-03-01T09:19:19;21.90;;;15.73;;
2416;SDS011;1219;48.736;9.330;2023-03-01T09:21:45;25.70;;;18.20;;
2416;SDS011;1219;48.736;9.330;2023-03-01T09:24:17;23.50;;;16.83;;
2416;SDS011;1219;48.736;9.330;2023-03-01T09:26:43;21.63;;;16.20;;
2416;SDS011;1219;48.736;9.330;2023-03-01T09:29:12;24.40;;;16.90;;
2416;SDS011;1219;48.736;9.330;2023-03-01T09:31:39;24.33;;;16.70;;
2416;SDS011;1219;48.736;9.330;2023-03-01T09:34:05;24.10;;;17.60;;
2416;SDS011;1219;48.736;9.330;2023-03-01T09:36:31;23.07;;;16.20;;
2416;SDS011;1219;48.736;9.330;2023-03-01T09:38:58;22.50;;;15.50;;
2416;SDS011;1219;48.736;9.330;2023-03-01T09:44:18;19.97;;;16.30;;
2416;SDS011;1219;48.736;9.330;2023-03-01T09:46:46;22.23;;;16.20;;
2416;SDS011;1219;48.736;9.330;2023-03-01T09:49:17;23.47;;;17.30;;
2416;SDS011;1219;48.736;9.330;2023-03-01T09:51:47;23.80;;;16.50;;
2416;SDS011;1219;48.736;9.330;2023-03-01T09:54:19;22.57;;;18.53;;
2416;SDS011;1219;48.736;9.330;2023-03-01T09:59:33;20.00;;;16.00;;
2416;SDS011;1219;48.736;9.330;2023-03-01T10:02:24;23.00;;;17.50;;
2416;SDS011;1219;48.736;9.330;2023-03-01T10:04:57;21.90;;;16.20;;
2416;SDS011;1219;48.736;9.330;2023-03-01T10:09:53;18.67;;;15.50;;
2416;SDS011;1219;48.736;9.330;2023-03-01T10:12:20;20.73;;;15.13;;
2416;SDS011;1219;48.736;9.330;2023-03-01T10:17:52;23.80;;;16.33;;
2416;SDS011;1219;48.736;9.330;2023-03-01T10:20:22;21.27;;;15.77;;
2416;SDS011;1219;48.736;9.330;2023-03-01T10:22:48;24.07;;;16.50;;
2416;SDS011;1219;48.736;9.330;2023-03-01T10:28:02;21.73;;;15.50;;
2416;SDS011;1219;48.736;9.330;2023-03-01T10:30:38;23.10;;;15.07;;
2416;SDS011;1219;48.736;9.330;2023-03-01T10:33:20;20.93;;;16.70;;
2416;SDS011;1219;48.736;9.330;2023-03-01T10:35:47;22.10;;;15.90;;
2416;SDS011;1219;48.736;9.330;2023-03-01T10:38:14;18.10;;;14.83;;
2416;SDS011;1219;48.736;9.330;2023-03-01T10:40:51;21.17;;;16.73;;
2416;SDS011;1219;48.736;9.330;2023-03-01T10:43:17;18.50;;;13.90;;
2416;SDS011;1219;48.736;9.330;2023-03-01T10:45:43;20.73;;;15.57;;
2416;SDS011;1219;48.736;9.330;2023-03-01T10:50:35;15.20;;;13.30;;
2416;SDS011;1219;48.736;9.330;2023-03-01T10:53:03;17.30;;;15.50;;
2416;SDS011;1219;48.736;9.330;2023-03-01T10:58:09;20.63;;;15.30;;
2416;SDS011;1219;48.736;9.330;2023-03-01T11:01:01;22.10;;;14.90;;
2416;SDS011;1219;48.736;9.330;2023-03-01T11:03:29;17.50;;;15.03;;
2416;SDS011;1219;48.736;9.330;2023-03-01T11:08:32;17.30;;;14.13;;
2416;SDS011;1219;48.736;9.330;2023-03-01T11:11:05;15.80;;;14.20;;
2416;SDS011;1219;48.736;9.330;2023-03-01T11:13:31;17.20;;;15.37;;
2416;SDS011;1219;48.736;9.330;2023-03-01T11:15:59;16.20;;;14.60;;
2416;SDS011;1219;48.736;9.330;2023-03-01T11:18:25;17.53;;;15.40;;
2416;SDS011;1219;48.736;9.330;2023-03-01T11:20:53;17.87;;;15.30;;
2416;SDS011;1219;48.736;9.330;2023-03-01T11:23:20;18.17;;;15.63;;
2416;SDS011;1219;48.736;9.330;2023-03-01T11:25:49;19.27;;;15.40;;
2416;SDS011;1219;48.736;9.330;2023-03-01T11:28:17;16.83;;;15.13;;
2416;SDS011;1219;48.736;9.330;2023-03-01T11:30:59;18.57;;;16.73;;
2416;SDS011;1219;48.736;9.330;2023-03-01T11:36:00;17.27;;;14.00;;
2416;SDS011;1219;48.736;9.330;2023-03-01T11:38:27;19.50;;;14.60;;
2416;SDS011;1219;48.736;9.330;2023-03-01T11:40:57;26.73;;;20.10;;
2416;SDS011;1219;48.736;9.330;2023-03-01T11:48:48;15.77;;;14.10;;
2416;SDS011;1219;48.736;9.330;2023-03-01T11:54:13;16.03;;;14.43;;
2416;SDS011;1219;48.736;9.330;2023-03-01T11:56:45;15.80;;;13.73;;
2416;SDS011;1219;48.736;9.330;2023-03-01T11:59:17;17.43;;;13.90;;
2416;SDS011;1219;48.736;9.330;2023-03-01T12:04:29;17.97;;;16.07;;
2416;SDS011;1219;48.736;9.330;2023-03-01T12:07:01;20.17;;;16.20;;
2416;SDS011;1219;48.736;9.330;2023-03-01T12:17:14;17.50;;;13.63;;
2416;SDS011;1219;48.736;9.330;2023-03-01T12:22:39;17.23;;;14.30;;
2416;SDS011;1219;48.736;9.330;2023-03-01T12:25:14;14.53;;;13.07;;
2416;SDS011;1219;48.736;9.330;2023-03-01T12:27:49;14.40;;;12.90;;
2416;SDS011;1219;48.736;9.330;2023-03-01T12:35:31;14.90;;;13.30;;
2416;SDS011;1219;48.736;9.330;2023-03-01T12:41:06;14.97;;;13.57;;
2416;SDS011;1219;48.736;9.330;2023-03-01T12:46:29;17.87;;;14.23;;
2416;SDS011;1219;48.736;9.330;2023-03-01T12:49:08;16.50;;;14.60;;
2416;SDS011;1219;48.736;9.330;2023-03-01T12:51:36;16.80;;;15.00;;
2416;SDS011;1219;48.736;9.330;2023-03-01T12:54:14;16.87;;;15.13;;
2416;SDS011;1219;48.736;9.330;2023-03-01T12:56:41;18.93;;;14.70;;
2416;SDS011;1219;48.736;9.330;2023-03-01T12:59:15;14.83;;;13.17;;
2416;SDS011;1219;48.736;9.330;2023-03-01T13:06:40;17.30;;;15.07;;
2416;SDS011;1219;48.736;9.330;2023-03-01T13:11:36;15.67;;;14.17;;
2416;SDS011;1219;48.736;9.330;2023-03-01T13:16:46;15.80;;;14.10;;
2416;SDS011;1219;48.736;9.330;2023-03-01T13:21:41;15.37;;;13.80;;
2416;SDS011;1219;48.736;9.330;2023-03-01T13:27:09;13.77;;;12.23;;
2416;SDS011;1219;48.736;9.330;2023-03-01T13:29:48;15.30;;;13.80;;
2416;SDS011;1219;48.736;9.330;2023-03-01T13:32:25;15.17;;;13.67;;
2416;SDS011;1219;48.736;9.330;2023-03-01T13:35:54;15.37;;;13.87;;
2416;SDS011;1219;48.736;9.330;2023-03-01T13:37:48;14.33;;;12.90;;
2416;SDS011;1219;48.736;9.330;2023-03-01T13:42:44;13.40;;;12.20;;
2416;SDS011;1219;48.736;9.330;2023-03-01T13:47:55;13.47;;;12.27;;
2416;SDS011;1219;48.736;9.330;2023-03-01T13:50:23;12.83;;;11.60;;
2416;SDS011;1219;48.736;9.330;2023-03-01T13:52:54;12.77;;;11.47;;
2416;SDS011;1219;48.736;9.330;2023-03-01T13:57:49;13.60;;;12.30;;
2416;SDS011;1219;48.736;9.330;2023-03-01T14:00:38;14.77;;;13.23;;
2416;SDS011;1219;48.736;9.330;2023-03-01T14:03:15;12.70;;;11.57;;
2416;SDS011;1219;48.736;9.330;2023-03-01T14:05:43;14.57;;;12.90;;
2416;SDS011;1219;48.736;9.330;2023-03-01T14:08:19;15.30;;;13.70;;
2416;SDS011;1219;48.736;9.330;2023-03-01T14:10:54;13.00;;;11.70;;
2416;SDS011;1219;48.736;9.330;2023-03-01T14:13:23;15.10;;;12.00;;
2416;SDS011;1219;48.736;9.330;2023-03-01T14:18:39;14.20;;;12.80;;
2416;SDS011;1219;48.736;9.330;2023-03-01T14:21:09;14.83;;;13.20;;
2416;SDS011;1219;48.736;9.330;2023-03-01T14:23:35;14.93;;;13.50;;
2416;SDS011;1219;48.736;9.330;2023-03-01T14:26:04;14.37;;;13.00;;
2416;SDS011;1219;48.736;9.330;2023-03-01T14:28:31;13.73;;;12.43;;
2416;SDS011;1219;48.736;9.330;2023-03-01T14:30:59;13.60;;;12.37;;
2416;SDS011;1219;48.736;9.330;2023-03-01T14:33:36;13.53;;;12.23;;
2416;SDS011;1219;48.736;9.330;2023-03-01T14:36:10;15.40;;;12.40;;
2416;SDS011;1219;48.736;9.330;2023-03-01T14:38:38;15.23;;;13.73;;
2416;SDS011;1219;48.736;9.330;2023-03-01T14:43:50;15.93;;;14.30;;
2416;SDS011;1219;48.736;9.330;2023-03-01T14:46:20;14.00;;;12.20;;
2416;SDS011;1219;48.736;9.330;2023-03-01T14:48:51;14.97;;;13.47;;
2416;SDS011;1219;48.736;9.330;2023-03-01T14:51:17;14.80;;;13.30;;
2416;SDS011;1219;48.736;9.330;2023-03-01T14:53:43;13.93;;;12.50;;
2416;SDS011;1219;48.736;9.330;2023-03-01T14:56:13;14.73;;;13.23;;
2416;SDS011;1219;48.736;9.330;2023-03-01T14:58:39;14.73;;;13.33;;
2416;SDS011;1219;48.736;9.330;2023-03-01T15:01:05;15.20;;;13.20;;
2416;SDS011;1219;48.736;9.330;2023-03-01T15:03:51;15.60;;;14.10;;
2416;SDS011;1219;48.736;9.330;2023-03-01T15:06:18;15.57;;;14.00;;
2416;SDS011;1219;48.736;9.330;2023-03-01T15:08:45;16.07;;;14.37;;
2416;SDS011;1219;48.736;9.330;2023-03-01T15:11:31;15.43;;;13.97;;
2416;SDS011;1219;48.736;9.330;2023-03-01T15:13:58;14.80;;;13.37;;
2416;SDS011;1219;48.736;9.330;2023-03-01T15:16:26;15.00;;;13.50;;
2416;SDS011;1219;48.736;9.330;2023-03-01T15:18:53;14.43;;;12.93;;
2416;SDS011;1219;48.736;9.330;2023-03-01T15:21:21;14.50;;;12.50;;
2416;SDS011;1219;48.736;9.330;2023-03-01T15:24:33;15.30;;;13.80;;
2416;SDS011;1219;48.736;9.330;2023-03-01T15:26:40;15.33;;;13.70;;
2416;SDS011;1219;48.736;9.330;2023-03-01T15:29:10;14.20;;;12.70;;
2416;SDS011;1219;48.736;9.330;2023-03-01T15:31:41;15.43;;;13.83;;
2416;SDS011;1219;48.736;9.330;2023-03-01T15:34:20;16.10;;;12.73;;
2416;SDS011;1219;48.736;9.330;2023-03-01T15:36:47;15.20;;;12.53;;
2416;SDS011;1219;48.736;9.330;2023-03-01T15:41:55;15.43;;;13.23;;
2416;SDS011;1219;48.736;9.330;2023-03-01T15:44:29;18.50;;;15.00;;
2416;SDS011;1219;48.736;9.330;2023-03-01T15:46:55;18.30;;;14.03;;
2416;SDS011;1219;48.736;9.330;2023-03-01T15:49:33;16.33;;;12.83;;
2416;SDS011;1219;48.736;9.330;2023-03-01T15:52:01;17.90;;;14.70;;
2416;SDS011;1219;48.736;9.330;2023-03-01T15:54:27;19.23;;;14.40;;
2416;SDS011;1219;48.736;9.330;2023-03-01T15:56:54;18.43;;;13.83;;
2416;SDS011;1219;48.736;9.330;2023-03-01T15:59:20;20.70;;;14.83;;
2416;SDS011;1219;48.736;9.330;2023-03-01T16:01:47;16.53;;;13.80;;
2416;SDS011;1219;48.736;9.330;2023-03-01T16:04:14;16.07;;;13.20;;
2416;SDS011;1219;48.736;9.330;2023-03-01T16:06:46;21.10;;;13.83;;
2416;SDS011;1219;48.736;9.330;2023-03-01T16:09:18;19.33;;;13.07;;
2416;SDS011;1219;48.736;9.330;2023-03-01T16:11:44;16.87;;;13.50;;
2416;SDS011;1219;48.736;9.330;2023-03-01T16:14:10;14.80;;;13.30;;
2416;SDS011;1219;48.736;9.330;2023-03-01T16:16:36;21.83;;;14.40;;
2416;SDS011;1219;48.736;9.330;2023-03-01T16:19:02;18.07;;;14.17;;
2416;SDS011;1219;48.736;9.330;2023-03-01T16:21:28;21.60;;;15.90;;
2416;SDS011;1219;48.736;9.330;2023-03-01T16:23:54;20.63;;;15.60;;
2416;SDS011;1219;48.736;9.330;2023-03-01T16:26:21;22.23;;;15.53;;
2416;SDS011;1219;48.736;9.330;2023-03-01T16:28:47;21.97;;;15.77;;
2416;SDS011;1219;48.736;9.330;2023-03-01T16:31:16;17.13;;;14.00;;